createdAt,value
2018-02-07T00:02:15.192Z,1.20
2018-02-07T00:04:42.721Z,1.10
2018-02-07T00:07:11.003Z,1.20
2018-02-07T00:09:38.519Z,1.20
2018-02-07T00:12:06.039Z,1.20
2018-02-07T00:14:33.555Z,1.20
2018-02-07T00:17:01.059Z,1.20
2018-02-07T00:19:28.599Z,1.20
2018-02-07T00:21:56.893Z,1.20
2018-02-07T00:24:24.422Z,1.10
2018-02-07T00:26:51.943Z,1.10
2018-02-07T00:29:19.453Z,1.20
2018-02-07T00:31:47.738Z,1.20
2018-02-07T00:34:15.255Z,1.10
2018-02-07T00:36:42.760Z,1.10
2018-02-07T00:39:10.287Z,1.20
2018-02-07T00:41:37.819Z,1.20
2018-02-07T00:44:05.339Z,1.20
2018-02-07T00:46:32.871Z,1.20
2018-02-07T00:49:01.157Z,1.20
2018-02-07T00:51:29.435Z,1.20
2018-02-07T00:53:57.706Z,1.30
2018-02-07T00:56:26.011Z,1.20
2018-02-07T00:58:53.548Z,1.20
2018-02-07T01:01:21.050Z,1.20
2018-02-07T01:03:48.591Z,1.20
2018-02-07T01:06:16.102Z,1.20
2018-02-07T01:08:43.609Z,1.20
2018-02-07T01:11:11.151Z,1.20
2018-02-07T01:13:38.661Z,1.10
2018-02-07T01:16:06.190Z,1.10
2018-02-07T01:18:33.707Z,1.10
2018-02-07T01:21:01.995Z,1.10
2018-02-07T01:23:29.498Z,1.10
2018-02-07T01:25:57.047Z,1.10
2018-02-07T01:28:24.569Z,1.10
2018-02-07T01:30:52.853Z,1.10
2018-02-07T01:33:20.385Z,1.00
2018-02-07T01:35:47.901Z,1.10
2018-02-07T01:38:15.410Z,1.10
2018-02-07T01:40:43.723Z,1.00
2018-02-07T01:43:11.245Z,1.00
2018-02-07T01:45:38.764Z,1.00
2018-02-07T01:48:06.315Z,1.00
2018-02-07T01:50:33.824Z,1.00
2018-02-07T01:53:01.365Z,1.00
2018-02-07T01:55:28.907Z,1.00
2018-02-07T01:57:56.448Z,1.00
2018-02-07T02:00:23.972Z,1.00
2018-02-07T02:02:51.572Z,1.00
2018-02-07T02:05:19.099Z,1.00
2018-02-07T02:07:46.617Z,0.90
2018-02-07T02:10:14.120Z,0.90
2018-02-07T02:12:41.656Z,0.90
2018-02-07T02:15:09.167Z,0.80
2018-02-07T02:17:36.710Z,0.90
2018-02-07T02:20:04.224Z,0.80
2018-02-07T02:22:31.731Z,0.80
2018-02-07T02:24:59.268Z,0.80
2018-02-07T02:27:26.780Z,0.70
2018-02-07T02:29:54.309Z,0.70
2018-02-07T02:32:21.836Z,0.70
2018-02-07T02:34:50.122Z,0.70
2018-02-07T02:37:17.639Z,0.60
2018-02-07T02:39:45.162Z,0.70
2018-02-07T02:42:12.684Z,0.70
2018-02-07T02:44:40.963Z,0.70
2018-02-07T02:47:09.253Z,0.70
2018-02-07T02:49:36.764Z,0.60
2018-02-07T02:52:04.296Z,0.70
2018-02-07T02:54:31.835Z,0.80
2018-02-07T02:56:59.357Z,0.70
2018-02-07T02:59:26.870Z,0.70
2018-02-07T03:01:54.403Z,0.70
2018-02-07T03:04:21.912Z,0.70
2018-02-07T03:06:49.434Z,0.70
2018-02-07T03:09:16.964Z,0.70
2018-02-07T03:11:45.260Z,0.70
2018-02-07T03:14:12.772Z,0.70
2018-02-07T03:16:40.302Z,0.70
2018-02-07T03:19:07.843Z,0.70
2018-02-07T03:21:35.344Z,0.70
2018-02-07T03:24:02.858Z,0.70
2018-02-07T03:26:30.378Z,0.70
2018-02-07T03:28:57.884Z,0.60
2018-02-07T03:31:25.416Z,0.70
2018-02-07T03:33:52.934Z,0.60
2018-02-07T03:36:21.622Z,0.60
2018-02-07T03:38:49.137Z,0.60
2018-02-07T03:41:16.657Z,0.60
2018-02-07T03:43:44.177Z,0.60
2018-02-07T03:46:11.716Z,0.60
2018-02-07T03:48:39.218Z,0.60
2018-02-07T03:51:06.734Z,0.60
2018-02-07T03:53:34.259Z,0.60
2018-02-07T03:56:01.770Z,0.60
2018-02-07T03:58:29.295Z,0.60
2018-02-07T04:00:56.816Z,0.60
2018-02-07T04:03:24.330Z,0.60
2018-02-07T04:05:51.833Z,0.60
2018-02-07T04:08:19.334Z,0.60
2018-02-07T04:10:46.861Z,0.60
2018-02-07T04:13:15.144Z,0.50
2018-02-07T04:15:43.424Z,0.50
2018-02-07T04:18:11.690Z,0.50
2018-02-07T04:20:39.204Z,0.50
2018-02-07T04:23:06.728Z,0.50
2018-02-07T04:25:34.241Z,0.50
2018-02-07T04:28:01.764Z,0.50
2018-02-07T04:30:29.274Z,0.40
2018-02-07T04:32:56.822Z,0.40
2018-02-07T04:35:24.338Z,0.40
2018-02-07T04:37:51.857Z,0.40
2018-02-07T04:40:19.359Z,0.40
2018-02-07T04:42:46.884Z,0.40
2018-02-07T04:45:15.186Z,0.40
2018-02-07T04:47:42.688Z,0.40
2018-02-07T04:50:10.211Z,0.40
2018-02-07T04:52:37.736Z,0.40
2018-02-07T04:55:05.260Z,0.40
2018-02-07T04:57:32.765Z,0.40
2018-02-07T05:00:00.302Z,0.40
2018-02-07T05:02:27.807Z,0.30
2018-02-07T05:04:55.321Z,0.30
2018-02-07T05:07:22.832Z,0.30
2018-02-07T05:09:50.340Z,0.30
2018-02-07T05:12:17.840Z,0.30
2018-02-07T05:14:45.356Z,0.40
2018-02-07T05:17:12.868Z,0.30
2018-02-07T05:19:40.376Z,0.30
2018-02-07T05:22:07.890Z,0.30
2018-02-07T05:24:35.395Z,0.30
2018-02-07T05:27:02.894Z,0.20
2018-02-07T05:29:30.420Z,0.20
2018-02-07T05:31:57.944Z,0.30
2018-02-07T05:34:25.456Z,0.20
2018-02-07T05:36:52.984Z,0.20
2018-02-07T05:39:20.506Z,0.20
2018-02-07T05:41:48.020Z,0.10
2018-02-07T05:44:15.570Z,0.00
2018-02-07T05:46:43.840Z,0.10
2018-02-07T05:49:12.138Z,0.10
2018-02-07T05:51:39.672Z,0.00
2018-02-07T05:54:07.208Z,0.00
2018-02-07T05:56:34.708Z,0.00
2018-02-07T05:59:02.236Z,0.00
2018-02-07T06:01:30.539Z,0.00
2018-02-07T06:03:58.836Z,0.00
2018-02-07T06:06:26.372Z,0.00
2018-02-07T06:08:54.652Z,0.00
2018-02-07T06:11:22.189Z,-0.10
2018-02-07T06:13:49.693Z,0.00
2018-02-07T06:16:17.243Z,0.00
2018-02-07T06:18:44.744Z,0.00
2018-02-07T06:21:12.255Z,0.00
2018-02-07T06:23:39.764Z,0.00
2018-02-07T06:26:07.276Z,0.00
2018-02-07T06:28:34.804Z,-0.10
2018-02-07T06:31:03.178Z,-0.10
2018-02-07T06:33:31.456Z,-0.10
2018-02-07T06:35:58.979Z,-0.20
2018-02-07T06:38:27.250Z,-0.20
2018-02-07T06:40:54.768Z,-0.20
2018-02-07T06:43:23.058Z,-0.20
2018-02-07T06:45:50.580Z,-0.30
2018-02-07T06:48:18.088Z,-0.20
2018-02-07T06:50:46.388Z,-0.30
2018-02-07T06:53:13.912Z,-0.30
2018-02-07T06:55:41.432Z,-0.30
2018-02-07T06:58:08.957Z,-0.30
2018-02-07T07:00:37.306Z,-0.30
2018-02-07T07:03:04.814Z,-0.40
2018-02-07T07:05:32.357Z,-0.40
2018-02-07T07:07:59.868Z,-0.40
2018-02-07T07:10:27.384Z,-0.40
2018-02-07T07:12:54.909Z,-0.40
2018-02-07T07:15:22.430Z,-0.40
2018-02-07T07:17:49.950Z,-0.40
2018-02-07T07:20:17.474Z,-0.40
2018-02-07T07:22:44.992Z,-0.40
2018-02-07T07:25:12.512Z,-0.40
2018-02-07T07:27:40.041Z,-0.40
2018-02-07T07:30:08.324Z,-0.40
2018-02-07T07:32:36.588Z,-0.40
2018-02-07T07:35:04.888Z,-0.40
2018-02-07T07:37:32.424Z,-0.40
2018-02-07T07:40:00.720Z,-0.40
2018-02-07T07:42:28.243Z,-0.40
2018-02-07T07:44:55.760Z,-0.40
2018-02-07T07:47:23.289Z,-0.40
2018-02-07T07:49:51.562Z,-0.30
2018-02-07T07:52:19.840Z,-0.40
2018-02-07T07:54:48.348Z,-0.40
2018-02-07T07:57:15.922Z,-0.40
2018-02-07T07:59:43.440Z,-0.30
2018-02-07T08:02:11.720Z,-0.30
2018-02-07T08:04:40.196Z,-0.30
2018-02-07T08:07:07.704Z,-0.40
2018-02-07T08:09:35.227Z,-0.30
2018-02-07T08:12:02.750Z,-0.30
2018-02-07T08:14:30.298Z,-0.20
2018-02-07T08:16:57.826Z,-0.20
2018-02-07T08:19:25.340Z,-0.20
2018-02-07T08:21:53.656Z,-0.20
2018-02-07T08:24:21.172Z,-0.20
2018-02-07T08:26:48.717Z,-0.20
2018-02-07T08:29:16.248Z,-0.10
2018-02-07T08:31:43.780Z,-0.10
2018-02-07T08:34:11.310Z,-0.10
2018-02-07T08:36:39.604Z,-0.10
2018-02-07T08:39:07.126Z,-0.10
2018-02-07T08:41:35.457Z,-0.10
2018-02-07T08:44:03.037Z,-0.10
2018-02-07T08:46:31.362Z,0.00
2018-02-07T08:48:58.876Z,-0.10
2018-02-07T08:51:26.412Z,0.00
2018-02-07T08:53:53.987Z,0.00
2018-02-07T08:56:21.507Z,0.00
2018-02-07T08:58:49.801Z,0.00
2018-02-07T09:01:17.308Z,0.00
2018-02-07T09:03:44.834Z,0.00
2018-02-07T09:06:12.344Z,0.00
2018-02-07T09:08:39.876Z,0.00
2018-02-07T09:11:07.424Z,0.10
2018-02-07T09:13:34.955Z,0.10
2018-02-07T09:16:02.491Z,0.00
2018-02-07T09:18:30.040Z,0.00
2018-02-07T09:20:57.560Z,0.00
2018-02-07T09:23:25.075Z,0.00
2018-02-07T09:25:52.700Z,0.00
2018-02-07T09:28:20.247Z,0.10
2018-02-07T09:30:47.755Z,0.00
2018-02-07T09:33:15.271Z,0.00
2018-02-07T09:35:42.789Z,0.10
2018-02-07T09:38:10.304Z,0.10
2018-02-07T09:40:37.836Z,0.10
2018-02-07T09:43:05.348Z,0.10
2018-02-07T09:45:32.866Z,0.10
2018-02-07T09:48:00.405Z,0.00
2018-02-07T09:50:27.976Z,0.00
2018-02-07T09:52:55.471Z,0.00
2018-02-07T09:55:23.760Z,0.00
2018-02-07T09:57:52.038Z,0.00
2018-02-07T10:00:20.326Z,0.00
2018-02-07T10:02:47.857Z,0.00
2018-02-07T10:05:15.360Z,0.00
2018-02-07T10:07:42.881Z,0.00
2018-02-07T10:10:11.180Z,0.00
2018-02-07T10:12:38.727Z,0.00
2018-02-07T10:15:06.231Z,0.00
2018-02-07T10:17:33.764Z,-0.10
2018-02-07T10:20:01.292Z,0.00
2018-02-07T10:22:28.858Z,-0.10
2018-02-07T10:24:57.172Z,-0.10
2018-02-07T10:27:24.711Z,-0.10
2018-02-07T10:29:52.247Z,-0.10
2018-02-07T10:32:19.794Z,-0.10
2018-02-07T10:34:47.333Z,-0.10
2018-02-07T10:37:14.860Z,0.00
2018-02-07T10:39:42.390Z,0.00
2018-02-07T10:42:10.690Z,0.00
2018-02-07T10:44:38.974Z,0.00
2018-02-07T10:47:06.581Z,0.00
2018-02-07T10:49:34.093Z,0.00
2018-02-07T10:52:01.642Z,0.10
2018-02-07T10:54:29.144Z,0.10
2018-02-07T10:56:56.674Z,0.10
2018-02-07T10:59:24.191Z,0.10
2018-02-07T11:01:52.486Z,0.10
2018-02-07T11:04:20.016Z,0.10
2018-02-07T11:06:47.630Z,0.10
2018-02-07T11:09:15.254Z,0.10
2018-02-07T11:11:42.810Z,0.10
2018-02-07T11:14:10.354Z,0.20
2018-02-07T11:16:37.980Z,0.20
2018-02-07T11:19:05.538Z,0.20
2018-02-07T11:21:33.086Z,0.30
2018-02-07T11:24:00.606Z,0.30
2018-02-07T11:26:28.911Z,0.30
2018-02-07T11:28:56.457Z,0.30
2018-02-07T11:31:23.988Z,0.30
2018-02-07T11:33:51.520Z,0.40
2018-02-07T11:36:19.050Z,0.40
2018-02-07T11:38:46.572Z,0.40
2018-02-07T11:41:14.072Z,0.40
2018-02-07T11:43:41.603Z,0.40
2018-02-07T11:46:09.119Z,0.40
2018-02-07T11:48:36.700Z,0.50
2018-02-07T11:51:04.994Z,0.60
2018-02-07T11:53:32.512Z,0.50
2018-02-07T11:56:00.040Z,0.60
2018-02-07T11:58:27.564Z,0.70
2018-02-07T12:00:55.840Z,0.70
2018-02-07T12:03:24.170Z,0.70
2018-02-07T12:05:51.690Z,0.70
2018-02-07T12:08:19.213Z,0.70
2018-02-07T12:10:46.720Z,0.80
2018-02-07T12:13:14.244Z,0.80
2018-02-07T12:15:41.756Z,0.80
2018-02-07T12:18:09.268Z,0.80
2018-02-07T12:20:37.596Z,0.80
2018-02-07T12:23:05.894Z,0.80
2018-02-07T12:25:33.426Z,0.70
2018-02-07T12:28:00.956Z,0.80
2018-02-07T12:30:28.468Z,0.80
2018-02-07T12:32:56.003Z,0.70
2018-02-07T12:35:23.500Z,0.80
2018-02-07T12:37:51.030Z,0.80
2018-02-07T12:40:19.330Z,0.80
2018-02-07T12:42:46.840Z,0.70
2018-02-07T12:45:14.357Z,0.80
2018-02-07T12:47:41.876Z,0.80
2018-02-07T12:50:09.396Z,0.80
2018-02-07T12:52:37.104Z,0.80
2018-02-07T12:55:04.644Z,0.70
2018-02-07T12:57:32.159Z,0.70
2018-02-07T12:59:59.691Z,0.70
2018-02-07T13:02:27.203Z,0.70
2018-02-07T13:04:54.712Z,0.80
2018-02-07T13:07:22.217Z,0.70
2018-02-07T13:09:49.747Z,0.70
2018-02-07T13:12:17.243Z,0.60
2018-02-07T13:14:44.758Z,0.60
2018-02-07T13:17:12.264Z,0.60
2018-02-07T13:19:39.752Z,0.60
2018-02-07T13:22:07.268Z,0.60
2018-02-07T13:24:34.789Z,0.70
2018-02-07T13:27:02.303Z,0.70
2018-02-07T13:29:29.803Z,0.60
2018-02-07T13:31:57.326Z,0.60
2018-02-07T13:34:24.836Z,0.60
2018-02-07T13:36:52.349Z,0.60
2018-02-07T13:39:19.871Z,0.60
2018-02-07T13:41:47.387Z,0.60
2018-02-07T13:44:15.020Z,0.60
2018-02-07T13:46:42.557Z,0.60
2018-02-07T13:49:10.093Z,0.60
2018-02-07T13:51:37.655Z,0.60
2018-02-07T13:54:05.972Z,0.60
2018-02-07T13:56:33.501Z,0.50
2018-02-07T13:59:01.792Z,0.60
2018-02-07T14:01:29.349Z,0.50
2018-02-07T14:03:56.961Z,0.60
2018-02-07T14:06:24.458Z,0.60
2018-02-07T14:08:52.757Z,0.60
2018-02-07T14:11:20.279Z,0.60
2018-02-07T14:13:47.804Z,0.60
2018-02-07T14:16:15.351Z,0.70
2018-02-07T14:18:42.856Z,0.70
2018-02-07T14:21:10.360Z,0.70
2018-02-07T14:23:37.898Z,0.70
2018-02-07T14:26:05.415Z,0.70
2018-02-07T14:28:32.927Z,0.70
2018-02-07T14:31:00.448Z,0.70
2018-02-07T14:33:27.952Z,0.70
2018-02-07T14:35:56.227Z,0.70
2018-02-07T14:38:23.765Z,0.60
2018-02-07T14:40:51.280Z,0.70
2018-02-07T14:43:18.814Z,0.70
2018-02-07T14:45:46.344Z,0.70
2018-02-07T14:48:13.888Z,0.60
2018-02-07T14:50:42.168Z,0.70
2018-02-07T14:53:10.472Z,0.60
2018-02-07T14:55:37.984Z,0.60
2018-02-07T14:58:05.487Z,0.60
2018-02-07T15:00:32.998Z,0.60
2018-02-07T15:03:00.510Z,0.70
2018-02-07T15:05:28.020Z,0.60
2018-02-07T15:07:55.541Z,0.60
2018-02-07T15:10:23.055Z,0.60
2018-02-07T15:12:51.337Z,0.60
2018-02-07T15:15:19.621Z,0.60
2018-02-07T15:17:47.144Z,0.50
2018-02-07T15:20:14.720Z,0.60
2018-02-07T15:22:43.017Z,0.60
2018-02-07T15:25:10.543Z,0.50
2018-02-07T15:27:38.076Z,0.60
2018-02-07T15:30:05.600Z,0.60
2018-02-07T15:32:33.116Z,0.60
2018-02-07T15:35:00.621Z,0.60
2018-02-07T15:37:28.131Z,0.60
2018-02-07T15:39:55.634Z,0.60
2018-02-07T15:42:23.150Z,0.60
2018-02-07T15:44:50.694Z,0.60
2018-02-07T15:47:18.214Z,0.60
2018-02-07T15:49:45.741Z,0.60
2018-02-07T15:52:13.289Z,0.60
2018-02-07T15:54:40.795Z,0.50
2018-02-07T15:57:08.338Z,0.50
2018-02-07T15:59:35.881Z,0.60
2018-02-07T16:02:04.155Z,0.50
2018-02-07T16:04:32.431Z,0.50
2018-02-07T16:07:00.715Z,0.50
2018-02-07T16:09:28.997Z,0.50
2018-02-07T16:11:57.268Z,0.50
2018-02-07T16:14:25.547Z,0.50
2018-02-07T16:16:53.827Z,0.50
2018-02-07T16:19:21.341Z,0.50
2018-02-07T16:21:48.859Z,0.50
2018-02-07T16:24:16.387Z,0.50
2018-02-07T16:26:44.018Z,0.50
2018-02-07T16:29:11.524Z,0.50
2018-02-07T16:31:39.027Z,0.50
2018-02-07T16:34:06.548Z,0.50
2018-02-07T16:36:34.106Z,0.50
2018-02-07T16:39:02.379Z,0.50
2018-02-07T16:41:29.875Z,0.50
2018-02-07T16:43:57.391Z,0.50
2018-02-07T16:46:24.912Z,0.50
2018-02-07T16:48:52.427Z,0.50
2018-02-07T16:51:19.948Z,0.50
2018-02-07T16:53:47.480Z,0.50
2018-02-07T16:56:14.990Z,0.50
2018-02-07T16:58:42.516Z,0.50
2018-02-07T17:01:10.043Z,0.50
2018-02-07T17:03:37.549Z,0.50
2018-02-07T17:06:05.852Z,0.50
2018-02-07T17:08:33.408Z,0.50
2018-02-07T17:11:00.934Z,0.50
2018-02-07T17:13:28.472Z,0.50
2018-02-07T17:15:56.000Z,0.50
2018-02-07T17:18:23.537Z,0.50
2018-02-07T17:20:51.095Z,0.50
2018-02-07T17:23:18.637Z,0.50
2018-02-07T17:25:46.915Z,0.50
2018-02-07T17:28:15.217Z,0.50
2018-02-07T17:30:42.763Z,0.50
2018-02-07T17:33:10.344Z,0.50
2018-02-07T17:35:37.880Z,0.50
2018-02-07T17:38:05.418Z,0.50
2018-02-07T17:40:32.933Z,0.50
2018-02-07T17:43:00.523Z,0.50
2018-02-07T17:45:28.046Z,0.50
2018-02-07T17:47:55.549Z,0.50
2018-02-07T17:50:23.064Z,0.50
2018-02-07T17:52:50.570Z,0.50
2018-02-07T17:55:18.104Z,0.50
2018-02-07T17:57:45.636Z,0.50
2018-02-07T18:00:13.972Z,0.50
2018-02-07T18:02:41.481Z,0.50
2018-02-07T18:05:09.017Z,0.50
2018-02-07T18:07:36.563Z,0.50
2018-02-07T18:10:04.853Z,0.50
2018-02-07T18:12:32.385Z,0.40
2018-02-07T18:14:59.926Z,0.50
2018-02-07T18:17:27.465Z,0.50
2018-02-07T18:19:55.000Z,0.50
2018-02-07T18:22:22.536Z,0.40
2018-02-07T18:24:50.837Z,0.50
2018-02-07T18:27:18.384Z,0.40
2018-02-07T18:29:45.928Z,0.50
2018-02-07T18:32:14.258Z,0.50
2018-02-07T18:34:41.826Z,0.40
2018-02-07T18:37:09.387Z,0.50
2018-02-07T18:39:36.931Z,0.50
2018-02-07T18:42:04.471Z,0.50
2018-02-07T18:44:32.013Z,0.50
2018-02-07T18:46:59.550Z,0.50
2018-02-07T18:49:27.087Z,0.50
2018-02-07T18:51:54.601Z,0.50
2018-02-07T18:54:22.125Z,0.50
2018-02-07T18:56:49.677Z,0.50
2018-02-07T18:59:17.220Z,0.50
2018-02-07T19:01:44.772Z,0.50
2018-02-07T19:04:12.363Z,0.50
2018-02-07T19:06:40.687Z,0.50
2018-02-07T19:09:08.259Z,0.50
2018-02-07T19:11:35.819Z,0.50
2018-02-07T19:14:03.363Z,0.50
2018-02-07T19:16:30.891Z,0.50
2018-02-07T19:18:59.203Z,0.50
2018-02-07T19:21:26.737Z,0.50
2018-02-07T19:23:54.287Z,0.60
2018-02-07T19:26:22.653Z,0.60
2018-02-07T19:28:50.167Z,0.50
2018-02-07T19:31:17.721Z,0.50
2018-02-07T19:33:45.401Z,0.60
2018-02-07T19:36:12.927Z,0.50
2018-02-07T19:38:40.461Z,0.60
2018-02-07T19:41:08.759Z,0.60
2018-02-07T19:43:36.285Z,0.60
2018-02-07T19:46:03.821Z,0.60
2018-02-07T19:48:31.445Z,0.60
2018-02-07T19:50:58.973Z,0.60
2018-02-07T19:53:26.519Z,0.60
2018-02-07T19:55:54.085Z,0.60
2018-02-07T19:58:21.606Z,0.60
2018-02-07T20:00:49.216Z,0.60
2018-02-07T20:03:17.545Z,0.60
2018-02-07T20:05:45.097Z,0.60
2018-02-07T20:08:12.698Z,0.60
2018-02-07T20:10:40.271Z,0.60
2018-02-07T20:13:08.606Z,0.60
2018-02-07T20:15:36.141Z,0.60
2018-02-07T20:18:03.747Z,0.60
2018-02-07T20:20:31.281Z,0.60
2018-02-07T20:22:58.818Z,0.60
2018-02-07T20:25:26.374Z,0.60
2018-02-07T20:27:54.637Z,0.60
2018-02-07T20:30:22.179Z,0.60
2018-02-07T20:32:49.736Z,0.60
2018-02-07T20:35:17.315Z,0.60
2018-02-07T20:37:44.871Z,0.60
2018-02-07T20:40:12.491Z,0.60
2018-02-07T20:42:40.014Z,0.60
2018-02-07T20:45:07.530Z,0.60
2018-02-07T20:47:35.099Z,0.60
2018-02-07T20:50:02.645Z,0.60
2018-02-07T20:52:30.176Z,0.60
2018-02-07T20:54:57.747Z,0.60
2018-02-07T20:57:25.329Z,0.60
2018-02-07T20:59:53.807Z,0.60
2018-02-07T21:02:22.185Z,0.60
2018-02-07T21:04:49.764Z,0.60
2018-02-07T21:07:17.347Z,0.60
2018-02-07T21:09:44.897Z,0.60
2018-02-07T21:12:12.465Z,0.60
2018-02-07T21:14:40.023Z,0.60
2018-02-07T21:17:07.579Z,0.60
2018-02-07T21:19:35.121Z,0.60
2018-02-07T21:22:04.661Z,0.60
2018-02-07T21:24:32.235Z,0.60
2018-02-07T21:26:59.806Z,0.60
2018-02-07T21:29:27.383Z,0.60
2018-02-07T21:31:54.940Z,0.60
2018-02-07T21:34:22.483Z,0.60
2018-02-07T21:36:50.057Z,0.60
2018-02-07T21:39:17.640Z,0.60
2018-02-07T21:41:45.232Z,0.60
2018-02-07T21:44:12.794Z,0.60
2018-02-07T21:46:40.380Z,0.70
2018-02-07T21:49:07.943Z,0.60
2018-02-07T21:51:35.639Z,0.60
2018-02-07T21:54:03.977Z,0.60
2018-02-07T21:56:31.561Z,0.60
2018-02-07T21:58:59.095Z,0.70
2018-02-07T22:01:26.755Z,0.70
2018-02-07T22:03:54.312Z,0.70
2018-02-07T22:06:21.903Z,0.70
2018-02-07T22:08:49.499Z,0.70
2018-02-07T22:11:17.235Z,0.70
2018-02-07T22:13:45.567Z,0.70
2018-02-07T22:16:13.165Z,0.70
2018-02-07T22:18:40.747Z,0.70
2018-02-07T22:21:08.327Z,0.70
2018-02-07T22:23:36.713Z,0.80
2018-02-07T22:26:04.287Z,0.80
2018-02-07T22:28:31.914Z,0.80
2018-02-07T22:30:59.474Z,0.90
2018-02-07T22:33:27.033Z,0.90
2018-02-07T22:35:57.881Z,0.90
2018-02-07T22:38:25.457Z,0.90
2018-02-07T22:40:53.801Z,0.90
2018-02-07T22:43:21.377Z,0.90
2018-02-07T22:45:49.001Z,0.90
2018-02-07T22:48:16.597Z,0.90
2018-02-07T22:50:44.153Z,0.90
2018-02-07T22:53:12.486Z,0.90
2018-02-07T22:55:40.061Z,0.90
2018-02-07T22:58:07.619Z,0.90
2018-02-07T23:00:35.209Z,1.00
2018-02-07T23:03:05.539Z,1.00
2018-02-07T23:05:33.168Z,1.00
2018-02-07T23:08:00.721Z,1.00
2018-02-07T23:10:28.317Z,1.00
2018-02-07T23:12:55.925Z,1.00
2018-02-07T23:15:23.503Z,1.00
2018-02-07T23:17:51.095Z,1.00
2018-02-07T23:20:18.645Z,1.00
2018-02-07T23:22:46.227Z,1.00
2018-02-07T23:25:13.819Z,1.00
2018-02-07T23:27:41.393Z,1.00
2018-02-07T23:30:08.940Z,1.00
2018-02-07T23:32:36.486Z,1.00
2018-02-07T23:35:04.053Z,1.00
2018-02-07T23:37:31.632Z,1.10
2018-02-07T23:39:59.198Z,1.00
2018-02-07T23:42:26.756Z,1.00
2018-02-07T23:44:54.340Z,1.00
2018-02-07T23:47:22.687Z,1.00
2018-02-07T23:49:50.255Z,1.00
2018-02-07T23:52:17.842Z,1.00
2018-02-07T23:54:45.381Z,1.00
2018-02-07T23:57:12.922Z,1.00
2018-02-07T23:59:40.503Z,1.00
